Map

Track Data

SID SEASON NUMBER BASIN SUBBASIN NAME ISO_TIME NATURE LAT LON WMO_WIND WMO_PRES WMO_AGENCY TRACK_TYPE DIST2LAND LANDFALL IFLAG USA_AGENCY USA_ATCF_ID USA_LAT USA_LON USA_RECORD USA_STATUS USA_WIND USA_PRES USA_SSHS USA_R34_NE USA_R34_SE USA_R34_SW USA_R34_NW USA_R50_NE USA_R50_SE USA_R50_SW USA_R50_NW USA_R64_NE USA_R64_SE USA_R64_SW USA_R64_NW USA_POCI USA_ROCI USA_RMW USA_EYE TOKYO_LAT TOKYO_LON TOKYO_GRADE TOKYO_WIND TOKYO_PRES TOKYO_R50_DIR TOKYO_R50_LONG TOKYO_R50_SHORT TOKYO_R30_DIR TOKYO_R30_LONG TOKYO_R30_SHORT TOKYO_LAND CMA_LAT CMA_LON CMA_CAT CMA_WIND CMA_PRES HKO_LAT HKO_LON HKO_CAT HKO_WIND HKO_PRES NEWDELHI_LAT NEWDELHI_LON NEWDELHI_GRADE NEWDELHI_WIND NEWDELHI_PRES NEWDELHI_CI NEWDELHI_DP NEWDELHI_POCI REUNION_LAT REUNION_LON REUNION_TYPE REUNION_WIND REUNION_PRES REUNION_TNUM REUNION_CI REUNION_RMW REUNION_R34_NE REUNION_R34_SE REUNION_R34_SW REUNION_R34_NW REUNION_R50_NE REUNION_R50_SE REUNION_R50_SW REUNION_R50_NW REUNION_R64_NE REUNION_R64_SE REUNION_R64_SW REUNION_R64_NW BOM_LAT BOM_LON BOM_TYPE BOM_WIND BOM_PRES BOM_TNUM BOM_CI BOM_RMW BOM_R34_NE BOM_R34_SE BOM_R34_SW BOM_R34_NW BOM_R50_NE BOM_R50_SE BOM_R50_SW BOM_R50_NW BOM_R64_NE BOM_R64_SE BOM_R64_SW BOM_R64_NW BOM_ROCI BOM_POCI BOM_EYE BOM_POS_METHOD BOM_PRES_METHOD NADI_LAT NADI_LON NADI_CAT NADI_WIND NADI_PRES WELLINGTON_LAT WELLINGTON_LON WELLINGTON_WIND WELLINGTON_PRES DS824_LAT DS824_LON DS824_STAGE DS824_WIND DS824_PRES TD9636_LAT TD9636_LON TD9636_STAGE TD9636_WIND TD9636_PRES TD9635_LAT TD9635_LON TD9635_WIND TD9635_PRES TD9635_ROCI NEUMANN_LAT NEUMANN_LON NEUMANN_CLASS NEUMANN_WIND NEUMANN_PRES MLC_LAT MLC_LON MLC_CLASS MLC_WIND MLC_PRES USA_GUST BOM_GUST BOM_GUST_PER REUNION_GUST REUNION_GUST_PER USA_SEAHGT USA_SEARAD_NE USA_SEARAD_SE USA_SEARAD_SW USA_SEARAD_NW STORM_SPEED STORM_DIR
1970247N18316 1970 106 NA NA NOT_NAMED 1970-09-03 12:00:00 TS 18.5000 -44.0000 20 hurdat_atl main 1757 1757 O_____________ hurdat_atl AL101970 18.5000 -44.0000 TD 20 -1 6 343
1970247N18316 1970 106 NA NA NOT_NAMED 1970-09-03 15:00:00 TS 18.7875 -44.0900 main 1780 1780 P_____________ AL101970 18.7875 -44.0900 TD 22 -1 6 342
1970247N18316 1970 106 NA NA NOT_NAMED 1970-09-03 18:00:00 TS 19.1000 -44.2000 25 hurdat_atl main 1803 1803 O_____________ hurdat_atl AL101970 19.1000 -44.2000 TD 25 -1 7 340
1970247N18316 1970 106 NA NA NOT_NAMED 1970-09-03 21:00:00 TS 19.4500 -44.3425 main 1836 1831 P_____________ AL101970 19.4500 -44.3425 TD 25 -1 8 338
1970247N18316 1970 106 NA NA NOT_NAMED 1970-09-04 00:00:00 TS 19.8000 -44.5000 25 hurdat_atl main 1855 1855 O_____________ hurdat_atl AL101970 19.8000 -44.5000 TD 25 -1 7 336
1970247N18316 1970 106 NA NA NOT_NAMED 1970-09-04 03:00:00 TS 20.1075 -44.6575 main 1874 1874 P_____________ AL101970 20.1075 -44.6575 TD 25 -1 7 335
1970247N18316 1970 106 NA NA NOT_NAMED 1970-09-04 06:00:00 TS 20.4000 -44.8000 25 hurdat_atl main 1898 1898 O_____________ hurdat_atl AL101970 20.4000 -44.8000 TD 25 -1 7 336
1970247N18316 1970 106 NA NA NOT_NAMED 1970-09-04 09:00:00 TS 20.7150 -44.9449 main 1923 1919 P_____________ AL101970 20.7150 -44.9449 TD 25 -1 6 343
1970247N18316 1970 106 NA NA NOT_NAMED 1970-09-04 12:00:00 TS 21.0000 -45.0000 25 hurdat_atl main 1948 1948 O_____________ hurdat_atl AL101970 21.0000 -45.0000 TD 25 -1 5 7
1970247N18316 1970 106 NA NA NOT_NAMED 1970-09-04 15:00:00 TS 21.2225 -44.8802 main 1973 1973 P_____________ AL101970 21.2225 -44.8802 TD 25 -1 5 35
1970247N18316 1970 106 NA NA NOT_NAMED 1970-09-04 18:00:00 TS 21.4000 -44.7000 25 hurdat_atl main 2002 2002 O_____________ hurdat_atl AL101970 21.4000 -44.7000 TD 25 -1 4 39
1970247N18316 1970 106 NA NA NOT_NAMED 1970-09-04 21:00:00 TS 21.5500 -44.5999 main 2017 2017 P_____________ AL101970 21.5500 -44.5999 TD 25 -1 4 31
1970247N18316 1970 106 NA NA NOT_NAMED 1970-09-05 00:00:00 TS 21.7000 -44.5000 25 hurdat_atl main 2042 2042 O_____________ hurdat_atl AL101970 21.7000 -44.5000 TD 25 -1 4 34
1970247N18316 1970 106 NA NA NOT_NAMED 1970-09-05 03:00:00 TS 21.8925 -44.3500 main 2066 2066 P_____________ AL101970 21.8925 -44.3500 TD 25 -1 5 35
1970247N18316 1970 106 NA NA NOT_NAMED 1970-09-05 06:00:00 TS 22.1000 -44.2000 25 hurdat_atl main 2096 2096 O_____________ hurdat_atl AL101970 22.1000 -44.2000 TD 25 -1 5 28
1970247N18316 1970 106 NA NA NOT_NAMED 1970-09-05 09:00:00 TS 22.2924 -44.1148 main 2120 2120 P_____________ AL101970 22.2924 -44.1148 TD 25 -1 4 25
1970247N18316 1970 106 NA NA NOT_NAMED 1970-09-05 12:00:00 TS 22.5000 -44.0000 25 hurdat_atl main 2145 2145 O_____________ hurdat_atl AL101970 22.5000 -44.0000 TD 25 -1 6 41
1970247N18316 1970 106 NA NA NOT_NAMED 1970-09-05 15:00:00 TS 22.7427 -43.6980 main 2179 2179 P_____________ AL101970 22.7427 -43.6980 TD 25 -1 7 43
1970247N18316 1970 106 NA NA NOT_NAMED 1970-09-05 18:00:00 TS 23.0000 -43.5000 25 hurdat_atl main 2218 2218 O_____________ hurdat_atl AL101970 23.0000 -43.5000 TD 25 -1 6 5
1970247N18316 1970 106 NA NA NOT_NAMED 1970-09-05 21:00:00 TS 23.3098 -43.6368 main 2243 2238 P_____________ AL101970 23.3098 -43.6368 TD 25 -1 7 317
1970247N18316 1970 106 NA NA NOT_NAMED 1970-09-06 00:00:00 TS 23.5000 -44.0000 25 hurdat_atl main 2244 2217 O_____________ hurdat_atl AL101970 23.5000 -44.0000 TD 25 -1 8 277
1970247N18316 1970 106 NA NA NOT_NAMED 1970-09-06 03:00:00 TS 23.4026 -44.4630 main 2212 2171 P_____________ AL101970 23.4026 -44.4630 TD 22 -1 10 252
1970247N18316 1970 106 NA NA NOT_NAMED 1970-09-06 06:00:00 TS 23.2000 -45.0000 20 hurdat_atl main 2171 2139 O_____________ hurdat_atl AL101970 23.2000 -45.0000 TD 20 -1 11 253
1970247N18316 1970 106 NA NA NOT_NAMED 1970-09-06 09:00:00 TS 23.1002 -45.5599 main 2134 2100 P_____________ AL101970 23.1002 -45.5599 TD 20 -1 9 258
1970247N18316 1970 106 NA NA NOT_NAMED 1970-09-06 12:00:00 TS 23.0000 -46.0000 20 hurdat_atl main 2100 2088 O_____________ hurdat_atl AL101970 23.0000 -46.0000 TD 20 -1 6 245
1970247N18316 1970 106 NA NA NOT_NAMED 1970-09-06 15:00:00 TS 22.8497 -46.1523 main 2074 2067 P_____________ AL101970 22.8497 -46.1523 TD 20 -1 4 211
1970247N18316 1970 106 NA NA NOT_NAMED 1970-09-06 18:00:00 TS 22.7000 -46.2000 20 hurdat_atl main 2067 2052 O_____________ hurdat_atl AL101970 22.7000 -46.2000 TD 20 -1 3 216
1970247N18316 1970 106 NA NA NOT_NAMED 1970-09-06 21:00:00 TS 22.6000 -46.3500 main 2052 2029 P_____________ AL101970 22.6000 -46.3500 TD 20 -1 3 234
1970247N18316 1970 106 NA NA NOT_NAMED 1970-09-07 00:00:00 TS 22.5000 -46.5000 20 hurdat_atl main 2029 2014 O_____________ hurdat_atl AL101970 22.5000 -46.5000 TD 20 -1 3 223
1970247N18316 1970 106 NA NA NOT_NAMED 1970-09-07 03:00:00 TS 22.3500 -46.6000 main 2008 1993 P_____________ AL101970 22.3500 -46.6000 TD 20 -1 4 211
1970247N18316 1970 106 NA NA NOT_NAMED 1970-09-07 06:00:00 TS 22.2000 -46.7000 20 hurdat_atl main 1993 1978 O_____________ hurdat_atl AL101970 22.2000 -46.7000 TD 20 -1 3 219
1970247N18316 1970 106 NA NA NOT_NAMED 1970-09-07 09:00:00 TS 22.0925 -46.8274 main 1978 1954 P_____________ AL101970 22.0925 -46.8274 TD 20 -1 3 234
1970247N18316 1970 106 NA NA NOT_NAMED 1970-09-07 12:00:00 TS 22.0000 -47.0000 20 hurdat_atl main 1954 1931 O_____________ hurdat_atl AL101970 22.0000 -47.0000 TD 20 -1 4 244
1970247N18316 1970 106 NA NA NOT_NAMED 1970-09-07 15:00:00 TS 21.9075 -47.2350 main 1931 1900 P_____________ AL101970 21.9075 -47.2350 TD 20 -1 5 247
1970247N18316 1970 106 NA NA NOT_NAMED 1970-09-07 18:00:00 TS 21.8000 -47.5000 20 hurdat_atl main 1900 1877 O_____________ hurdat_atl AL101970 21.8000 -47.5000 TD 20 -1 5 242
1970247N18316 1970 106 NA NA NOT_NAMED 1970-09-07 21:00:00 TS 21.6575 -47.7500 main 1877 1839 P_____________ AL101970 21.6575 -47.7500 TD 20 -1 6 237
1970247N18316 1970 106 NA NA NOT_NAMED 1970-09-08 00:00:00 TS 21.5000 -48.0000 20 hurdat_atl main 1839 1816 O_____________ hurdat_atl AL101970 21.5000 -48.0000 TD 20 -1 6 236
1970247N18316 1970 106 NA NA NOT_NAMED 1970-09-08 03:00:00 TS 21.3425 -48.2500 main 1809 1778 P_____________ AL101970 21.3425 -48.2500 TD 20 -1 6 237
1970247N18316 1970 106 NA NA NOT_NAMED 1970-09-08 06:00:00 TS 21.2000 -48.5000 20 hurdat_atl main 1778 1754 O_____________ hurdat_atl AL101970 21.2000 -48.5000 TD 20 -1 5 240
1970247N18316 1970 106 NA NA NOT_NAMED 1970-09-08 09:00:00 TS 21.0997 -48.7048 main 1754 1723 P_____________ AL101970 21.0997 -48.7048 TD 20 -1 5 247
1970247N18316 1970 106 NA NA NOT_NAMED 1970-09-08 12:00:00 TS 21.0000 -49.0000 20 hurdat_atl main 1723 1677 O_____________ hurdat_atl AL101970 21.0000 -49.0000 TD 20 -1 8 253
1970247N18316 1970 106 NA NA NOT_NAMED 1970-09-08 15:00:00 TS 20.8652 -49.5050 main 1677 1615 P_____________ AL101970 20.8652 -49.5050 TD 20 -1 11 254
1970247N18316 1970 106 NA NA NOT_NAMED 1970-09-08 18:00:00 TS 20.7000 -50.1000 20 hurdat_atl main 1615 1562 O_____________ hurdat_atl AL101970 20.7000 -50.1000 TD 20 -1 11 252
1970247N18316 1970 106 NA NA NOT_NAMED 1970-09-08 21:00:00 TS 20.5073 -50.6499 main 1562 1501 P_____________ AL101970 20.5073 -50.6499 TD 20 -1 11 249
1970247N18316 1970 106 NA NA NOT_NAMED 1970-09-09 00:00:00 TS 20.3000 -51.2000 20 hurdat_atl main 1501 1448 O_____________ hurdat_atl AL101970 20.3000 -51.2000 TD 20 -1 11 248
1970247N18316 1970 106 NA NA NOT_NAMED 1970-09-09 03:00:00 TS 20.0978 -51.7502 main 1441 1389 P_____________ AL101970 20.0978 -51.7502 TD 20 -1 11 249
1970247N18316 1970 106 NA NA NOT_NAMED 1970-09-09 06:00:00 TS 19.9000 -52.3000 20 hurdat_atl main 1389 O_____________ hurdat_atl AL101970 19.9000 -52.3000 TD 20 -1 11 249

About IBTrACS Database

This database is a web-friendly format of International Best Track Archive for Climate Stewardship (IBTrACS), a global best track data archive curated by NOAA dating back to 1842.

Updated: 2021-10-27